Time,TemperatureF,DewpointF,PressureIn,WindDirection,WindDirectionDegrees,WindSpeedMPH,WindSpeedGustMPH,Humidity,HourlyPrecipIn,Conditions,Clouds,dailyrainin,SolarRadiationWatts/m^2,SoftwareType,DateUTC
2013-10-12 00:00:00,42.0,42.0,-100.00,SW,218,6.0,12.0,100,0.00,,,0.01,0.000000,,2013-10-12 07:00:00,
2013-10-12 00:22:00,42.0,42.0,-100.00,SW,218,6.0,12.0,100,0.00,,,0.01,0.000000,,2013-10-12 07:22:00,
2013-10-12 00:32:00,42.0,42.0,-100.00,SW,218,6.0,12.0,100,0.00,,,0.01,0.000000,,2013-10-12 07:32:00,
2013-10-12 00:42:00,42.0,42.0,-100.00,SW,218,6.0,12.0,100,0.00,,,0.01,0.000000,,2013-10-12 07:42:00,
2013-10-12 00:52:00,42.0,42.0,-100.00,SW,218,6.0,12.0,100,0.00,,,0.01,0.000000,,2013-10-12 07:52:00,
2013-10-12 01:00:00,40.0,40.0,-100.00,SW,220,4.0,9.0,100,0.00,,,0.01,0.000000,,2013-10-12 08:00:00,
2013-10-12 01:23:00,40.0,40.0,-100.00,SW,220,4.0,9.0,100,0.00,,,0.01,0.000000,,2013-10-12 08:23:00,
2013-10-12 01:32:00,40.0,40.0,-100.00,SW,220,4.0,9.0,100,0.00,,,0.01,0.000000,,2013-10-12 08:32:00,
2013-10-12 01:42:00,40.0,40.0,-100.00,SW,220,4.0,9.0,100,0.00,,,0.01,0.000000,,2013-10-12 08:42:00,
2013-10-12 01:52:00,40.0,40.0,-100.00,SW,220,4.0,9.0,100,0.00,,,0.01,0.000000,,2013-10-12 08:52:00,
2013-10-12 02:00:00,41.0,41.0,-100.00,SW,236,1.0,6.0,100,0.00,,,0.01,0.000000,,2013-10-12 09:00:00,
2013-10-12 02:22:00,41.0,41.0,-100.00,SW,236,1.0,6.0,100,0.00,,,0.01,0.000000,,2013-10-12 09:22:00,
2013-10-12 02:33:00,41.0,41.0,-100.00,SW,236,1.0,6.0,100,0.00,,,0.01,0.000000,,2013-10-12 09:33:00,
2013-10-12 02:43:00,41.0,41.0,-100.00,SW,236,1.0,6.0,100,0.00,,,0.01,0.000000,,2013-10-12 09:43:00,
2013-10-12 02:54:00,41.0,41.0,-100.00,SW,236,1.0,6.0,100,0.00,,,0.01,0.000000,,2013-10-12 09:54:00,
2013-10-12 03:00:00,41.0,41.0,-100.00,WNW,299,0.0,6.0,100,0.00,,,0.01,0.000000,,2013-10-12 10:00:00,
2013-10-12 03:42:00,41.0,41.0,-100.00,WNW,299,0.0,6.0,100,0.00,,,0.01,0.000000,,2013-10-12 10:42:00,
2013-10-12 03:52:00,41.0,41.0,-100.00,WNW,299,0.0,6.0,100,0.00,,,0.01,0.000000,,2013-10-12 10:52:00,
2013-10-12 04:00:00,41.0,41.0,-100.00,NE,37,0.0,3.0,100,0.01,,,0.02,0.000000,,2013-10-12 11:00:00,
2013-10-12 04:42:00,41.0,41.0,-100.00,NE,37,0.0,3.0,100,0.01,,,0.02,0.000000,,2013-10-12 11:42:00,
2013-10-12 04:52:00,41.0,41.0,-100.00,NE,37,0.0,3.0,100,0.01,,,0.02,0.000000,,2013-10-12 11:52:00,
2013-10-12 05:00:00,39.0,39.0,-100.00,NE,35,4.0,6.0,100,0.00,,,0.02,0.000000,,2013-10-12 12:00:00,
2013-10-12 05:42:00,39.0,39.0,-100.00,NE,35,4.0,6.0,100,0.00,,,0.02,0.000000,,2013-10-12 12:42:00,
2013-10-12 05:52:00,39.0,39.0,-100.00,NE,35,4.0,6.0,100,0.00,,,0.02,0.000000,,2013-10-12 12:52:00,
2013-10-12 06:00:00,41.0,41.0,-100.00,ENE,65,7.0,10.0,100,0.00,,,0.02,0.000000,,2013-10-12 13:00:00,
2013-10-12 06:42:00,41.0,41.0,-100.00,ENE,65,7.0,10.0,100,0.00,,,0.02,0.000000,,2013-10-12 13:42:00,
2013-10-12 06:52:00,41.0,41.0,-100.00,ENE,65,7.0,10.0,100,0.00,,,0.02,0.000000,,2013-10-12 13:52:00,
2013-10-12 07:00:00,41.0,41.0,-100.00,ENE,66,7.0,11.0,100,0.00,,,-99.99,0.000000,,2013-10-12 14:00:00,
2013-10-12 07:42:00,41.0,41.0,-100.00,ENE,66,7.0,11.0,100,0.00,,,-99.99,0.000000,,2013-10-12 14:42:00,
2013-10-12 07:52:00,41.0,41.0,-100.00,ENE,66,7.0,11.0,100,0.00,,,-99.99,0.000000,,2013-10-12 14:52:00,
2013-10-12 08:00:00,39.0,39.0,-100.00,ENE,63,13.0,19.0,100,0.00,,,0.02,3.000000,,2013-10-12 15:00:00,
2013-10-12 08:22:00,39.0,39.0,-100.00,ENE,63,13.0,19.0,100,0.00,,,0.02,3.000000,,2013-10-12 15:22:00,
2013-10-12 08:33:00,39.0,39.0,-100.00,ENE,63,13.0,19.0,100,0.00,,,0.02,3.000000,,2013-10-12 15:33:00,
2013-10-12 08:44:00,39.0,39.0,-100.00,ENE,63,13.0,19.0,100,0.00,,,0.02,3.000000,,2013-10-12 15:44:00,
2013-10-12 08:53:00,39.0,39.0,-100.00,ENE,63,13.0,19.0,100,0.00,,,0.02,3.000000,,2013-10-12 15:53:00,
2013-10-12 09:00:00,41.0,41.0,-100.00,ENE,63,15.0,24.0,100,0.00,,,0.02,43.000000,,2013-10-12 16:00:00,
2013-10-12 09:43:00,41.0,41.0,-100.00,ENE,63,15.0,24.0,100,0.00,,,0.02,43.000000,,2013-10-12 16:43:00,
2013-10-12 09:53:00,41.0,41.0,-100.00,ENE,63,15.0,24.0,100,0.00,,,0.02,43.000000,,2013-10-12 16:53:00,
2013-10-12 10:00:00,41.0,41.0,-100.00,ENE,64,14.0,25.0,100,0.00,,,0.02,43.000000,,2013-10-12 17:00:00,
2013-10-12 10:42:00,41.0,41.0,-100.00,ENE,64,14.0,25.0,100,0.00,,,0.02,43.000000,,2013-10-12 17:42:00,
2013-10-12 10:53:00,41.0,41.0,-100.00,ENE,64,14.0,25.0,100,0.00,,,0.02,43.000000,,2013-10-12 17:53:00,
2013-10-12 11:00:00,40.0,40.0,-100.00,ENE,66,15.0,27.0,100,0.00,,,0.02,105.000000,,2013-10-12 18:00:00,
2013-10-12 11:22:00,40.0,40.0,-100.00,ENE,66,15.0,27.0,100,0.00,,,0.02,105.000000,,2013-10-12 18:22:00,
2013-10-12 11:32:00,40.0,40.0,-100.00,ENE,66,15.0,27.0,100,0.00,,,0.02,105.000000,,2013-10-12 18:32:00,
2013-10-12 11:42:00,40.0,40.0,-100.00,ENE,66,15.0,27.0,100,0.00,,,0.02,105.000000,,2013-10-12 18:42:00,
2013-10-12 11:52:00,40.0,40.0,-100.00,ENE,66,15.0,27.0,100,0.00,,,0.02,105.000000,,2013-10-12 18:52:00,
2013-10-12 12:00:00,42.0,42.0,-100.00,ENE,73,12.0,26.0,100,0.00,,,0.02,193.000000,,2013-10-12 19:00:00,
2013-10-12 12:42:00,42.0,42.0,-100.00,ENE,73,12.0,26.0,100,0.00,,,0.02,193.000000,,2013-10-12 19:42:00,
2013-10-12 12:52:00,42.0,42.0,-100.00,ENE,73,12.0,26.0,100,0.00,,,0.02,193.000000,,2013-10-12 19:52:00,
2013-10-12 13:00:00,43.0,43.0,-100.00,ENE,72,8.0,21.0,100,0.00,,,0.02,223.000000,,2013-10-12 20:00:00,
2013-10-12 13:42:00,43.0,43.0,-100.00,ENE,72,8.0,21.0,100,0.00,,,0.02,223.000000,,2013-10-12 20:42:00,
2013-10-12 13:52:00,43.0,43.0,-100.00,ENE,72,8.0,21.0,100,0.00,,,0.02,223.000000,,2013-10-12 20:52:00,
2013-10-12 14:00:00,47.0,47.0,-100.00,ENE,65,8.0,15.0,100,0.00,,,-99.99,393.000000,,2013-10-12 21:00:00,
2013-10-12 14:22:00,47.0,47.0,-100.00,ENE,65,8.0,15.0,100,0.00,,,-99.99,393.000000,,2013-10-12 21:22:00,
2013-10-12 14:35:00,47.0,47.0,-100.00,ENE,65,8.0,15.0,100,0.00,,,-99.99,393.000000,,2013-10-12 21:35:00,
2013-10-12 14:43:00,47.0,47.0,-100.00,ENE,65,8.0,15.0,100,0.00,,,-99.99,393.000000,,2013-10-12 21:43:00,
2013-10-12 14:54:00,47.0,47.0,-100.00,ENE,65,8.0,15.0,100,0.00,,,-99.99,393.000000,,2013-10-12 21:54:00,
2013-10-12 15:00:00,48.0,47.0,-100.00,NE,53,7.0,13.0,98,0.00,,,0.02,571.000000,,2013-10-12 22:00:00,
2013-10-12 15:43:00,48.0,47.0,-100.00,NE,53,7.0,13.0,98,0.00,,,0.02,571.000000,,2013-10-12 22:43:00,
2013-10-12 15:54:00,48.0,47.0,-100.00,NE,53,7.0,13.0,98,0.00,,,0.02,571.000000,,2013-10-12 22:54:00,
2013-10-12 16:00:00,47.0,45.0,-100.00,NE,54,6.0,11.0,92,0.00,,,0.02,531.000000,,2013-10-12 23:00:00,
2013-10-12 16:22:00,47.0,45.0,-100.00,NE,54,6.0,11.0,92,0.00,,,0.02,531.000000,,2013-10-12 23:22:00,
2013-10-12 16:33:00,47.0,45.0,-100.00,NE,54,6.0,11.0,92,0.00,,,0.02,531.000000,,2013-10-12 23:33:00,
2013-10-12 16:42:00,47.0,45.0,-100.00,NE,54,6.0,11.0,92,0.00,,,0.02,531.000000,,2013-10-12 23:42:00,
2013-10-12 16:52:00,47.0,45.0,-100.00,NE,54,6.0,11.0,92,0.00,,,0.02,531.000000,,2013-10-12 23:52:00,
2013-10-12 17:00:00,45.0,45.0,-100.00,ENE,58,7.0,11.0,99,0.00,,,0.02,342.000000,,2013-10-13 00:00:00,
2013-10-12 17:22:00,45.0,45.0,-100.00,ENE,58,7.0,11.0,99,0.00,,,0.02,342.000000,,2013-10-13 00:22:00,
2013-10-12 17:32:00,45.0,45.0,-100.00,ENE,58,7.0,11.0,99,0.00,,,0.02,342.000000,,2013-10-13 00:32:00,
2013-10-12 17:42:00,45.0,45.0,-100.00,ENE,58,7.0,11.0,99,0.00,,,0.02,342.000000,,2013-10-13 00:42:00,
2013-10-12 17:52:00,45.0,45.0,-100.00,ENE,58,7.0,11.0,99,0.00,,,0.02,342.000000,,2013-10-13 00:52:00,
2013-10-12 18:00:00,44.0,44.0,-100.00,NE,40,7.0,11.0,100,0.00,,,0.01,100.000000,,2013-10-13 01:00:00,
2013-10-12 18:42:00,44.0,44.0,-100.00,NE,40,7.0,11.0,100,0.00,,,0.01,100.000000,,2013-10-13 01:42:00,
2013-10-12 18:52:00,44.0,44.0,-100.00,NE,40,7.0,11.0,100,0.00,,,0.01,100.000000,,2013-10-13 01:52:00,
2013-10-12 19:00:00,43.0,43.0,-100.00,NE,34,6.0,9.0,100,0.00,,,0.01,17.000000,,2013-10-13 02:00:00,
2013-10-12 19:43:00,43.0,43.0,-100.00,NE,34,6.0,9.0,100,0.00,,,0.01,17.000000,,2013-10-13 02:43:00,
2013-10-12 19:52:00,43.0,43.0,-100.00,NE,34,6.0,9.0,100,0.00,,,0.01,17.000000,,2013-10-13 02:52:00,
2013-10-12 20:00:00,-999.0,-99.9,-100.00,NE,53,7.0,9.0,-999,-99.99,,,-99.99,0.000000,,2013-10-13 03:00:00,
2013-10-12 20:45:00,41.0,41.0,-100.00,NE,53,7.0,9.0,100,0.00,,,0.01,0.000000,,2013-10-13 03:45:00,
2013-10-12 20:54:00,41.0,41.0,-100.00,NE,53,7.0,9.0,100,0.00,,,0.01,0.000000,,2013-10-13 03:54:00,
2013-10-12 21:00:00,42.0,42.0,-100.00,NE,46,6.0,9.0,100,0.00,,,0.01,0.000000,,2013-10-13 04:00:00,
2013-10-12 21:24:00,42.0,42.0,-100.00,NE,46,6.0,9.0,100,0.00,,,0.01,0.000000,,2013-10-13 04:24:00,
2013-10-12 21:34:00,42.0,42.0,-100.00,NE,46,6.0,9.0,100,0.00,,,0.01,0.000000,,2013-10-13 04:34:00,
2013-10-12 21:43:00,42.0,42.0,-100.00,NE,46,6.0,9.0,100,0.00,,,0.01,0.000000,,2013-10-13 04:43:00,
2013-10-12 21:54:00,42.0,42.0,-100.00,NE,46,6.0,9.0,100,0.00,,,0.01,0.000000,,2013-10-13 04:54:00,
2013-10-12 22:00:00,41.0,41.0,-100.00,NNE,24,6.0,8.0,100,0.00,,,0.01,0.000000,,2013-10-13 05:00:00,
2013-10-12 22:43:00,41.0,41.0,-100.00,NNE,24,6.0,8.0,100,0.00,,,0.01,0.000000,,2013-10-13 05:43:00,
2013-10-12 22:52:00,41.0,41.0,-100.00,NNE,24,6.0,8.0,100,0.00,,,0.01,0.000000,,2013-10-13 05:52:00,
2013-10-12 23:00:00,43.0,43.0,-100.00,NNE,26,5.0,8.0,100,0.00,,,0.01,0.000000,,2013-10-13 06:00:00,
2013-10-12 23:22:00,43.0,43.0,-100.00,NNE,26,5.0,8.0,100,0.00,,,0.01,0.000000,,2013-10-13 06:22:00,
2013-10-12 23:32:00,43.0,43.0,-100.00,NNE,26,5.0,8.0,100,0.00,,,0.01,0.000000,,2013-10-13 06:32:00,
2013-10-12 23:42:00,43.0,43.0,-100.00,NNE,26,5.0,8.0,100,0.00,,,0.01,0.000000,,2013-10-13 06:42:00,
2013-10-12 23:52:00,43.0,43.0,-100.00,NNE,26,5.0,8.0,100,0.00,,,0.01,0.000000,,2013-10-13 06:52:00,